createdAt,value
2022-10-17T00:00:39.208Z,101016.41
2022-10-17T00:03:07.064Z,101020.00
2022-10-17T00:05:35.161Z,101020.41
2022-10-17T00:08:03.068Z,101026.69
2022-10-17T00:10:30.909Z,101026.00
2022-10-17T00:12:58.780Z,101023.47
2022-10-17T00:15:26.600Z,101026.41
2022-10-17T00:17:55.881Z,101030.03
2022-10-17T00:20:23.795Z,101042.72
2022-10-17T00:22:51.567Z,101032.38
2022-10-17T00:25:21.863Z,101030.69
2022-10-17T00:27:49.648Z,101031.28
2022-10-17T00:30:17.780Z,101042.84
2022-10-17T00:32:45.781Z,101038.94
2022-10-17T00:35:14.917Z,101044.25
2022-10-17T00:37:43.063Z,101031.84
2022-10-17T00:40:11.795Z,101037.44
2022-10-17T00:42:39.899Z,101038.56
2022-10-17T00:45:19.134Z,101035.66
2022-10-17T00:47:52.861Z,101032.88
2022-10-17T00:50:23.057Z,101034.00
2022-10-17T00:52:51.745Z,101024.72
2022-10-17T00:55:23.643Z,101032.97
2022-10-17T00:57:52.629Z,101021.50
2022-10-17T01:00:21.269Z,101023.47
2022-10-17T01:02:49.533Z,101028.22
2022-10-17T01:05:19.415Z,101031.41
2022-10-17T01:07:50.601Z,101032.50
2022-10-17T01:10:18.984Z,101039.75
2022-10-17T01:12:58.133Z,101033.88
2022-10-17T01:15:40.063Z,101043.66
2022-10-17T01:18:20.448Z,101042.00
2022-10-17T01:21:32.645Z,101048.25
2022-10-17T01:24:42.727Z,101049.50
2022-10-17T01:27:36.426Z,101054.22
2022-10-17T01:30:34.489Z,101048.94
2022-10-17T01:33:12.134Z,101044.84
2022-10-17T01:35:47.653Z,101044.56
2022-10-17T01:38:21.504Z,101045.38
2022-10-17T01:40:53.567Z,101046.50
2022-10-17T01:43:28.103Z,101042.16
2022-10-17T01:46:02.668Z,101043.13
2022-10-17T01:48:36.632Z,101035.56
2022-10-17T01:51:10.126Z,101037.53
2022-10-17T01:53:45.653Z,101031.25
2022-10-17T01:56:15.401Z,101041.84
2022-10-17T01:58:48.985Z,101033.75
2022-10-17T02:01:18.576Z,101025.94
2022-10-17T02:03:51.326Z,101020.75
2022-10-17T02:06:19.295Z,101027.72
2022-10-17T02:08:49.532Z,101028.47
2022-10-17T02:11:19.996Z,101025.94
2022-10-17T02:14:09.482Z,101035.69
2022-10-17T02:16:44.079Z,101022.44
2022-10-17T02:19:44.989Z,101030.38
2022-10-17T02:22:22.909Z,101029.97
2022-10-17T02:24:55.590Z,101030.78
2022-10-17T02:27:33.862Z,101024.13
2022-10-17T02:30:07.829Z,101026.22
2022-10-17T02:32:45.425Z,101016.34
2022-10-17T02:35:20.745Z,101029.91
2022-10-17T02:37:50.044Z,101027.84
2022-10-17T02:40:22.071Z,101031.91
2022-10-17T02:42:52.382Z,101034.03
2022-10-17T02:45:21.081Z,101036.00
2022-10-17T02:47:56.742Z,101037.28
2022-10-17T02:50:34.277Z,101046.91
2022-10-17T02:53:10.255Z,101043.88
2022-10-17T02:55:45.051Z,101047.34
2022-10-17T02:58:17.594Z,101050.69
2022-10-17T03:00:46.629Z,101047.09
2022-10-17T03:03:23.658Z,101051.16
2022-10-17T03:05:55.802Z,101058.88
2022-10-17T03:08:26.625Z,101063.19
2022-10-17T03:10:54.601Z,101064.75
2022-10-17T03:13:25.833Z,101054.94
2022-10-17T03:15:54.006Z,101069.06
2022-10-17T03:18:21.741Z,101067.97
2022-10-17T03:20:51.718Z,101066.97
2022-10-17T03:23:21.002Z,101069.63
2022-10-17T03:25:49.165Z,101073.53
2022-10-17T03:28:17.763Z,101069.31
2022-10-17T03:30:45.653Z,101067.06
2022-10-17T03:33:13.566Z,101066.63
2022-10-17T03:35:41.425Z,101067.44
2022-10-17T03:38:09.713Z,101073.03
2022-10-17T03:40:39.448Z,101075.53
2022-10-17T03:43:07.608Z,101072.75
2022-10-17T03:45:36.801Z,101073.59
2022-10-17T03:48:05.042Z,101074.41
2022-10-17T03:50:33.241Z,101082.53
2022-10-17T03:53:01.240Z,101075.53
2022-10-17T03:55:29.982Z,101084.78
2022-10-17T03:57:59.153Z,101081.41
2022-10-17T04:00:27.041Z,101088.66
2022-10-17T04:02:59.383Z,101094.25
2022-10-17T04:05:27.834Z,101095.34
2022-10-17T04:08:02.399Z,101100.06
2022-10-17T04:10:59.612Z,101100.59
2022-10-17T04:13:30.037Z,101111.63
2022-10-17T04:15:59.922Z,101108.25
2022-10-17T04:18:28.745Z,101104.06
2022-10-17T04:20:56.650Z,101112.00
2022-10-17T04:23:27.121Z,101116.47
2022-10-17T04:26:03.888Z,101117.19
2022-10-17T04:28:34.340Z,101127.06
2022-10-17T04:31:04.603Z,101125.78
2022-10-17T04:33:38.515Z,101121.56
2022-10-17T04:36:08.872Z,101123.53
2022-10-17T04:38:37.183Z,101115.13
2022-10-17T04:41:07.068Z,101107.44
2022-10-17T04:43:38.781Z,101109.75
2022-10-17T04:46:11.414Z,101117.69
2022-10-17T04:48:41.031Z,101119.53
2022-10-17T04:51:13.139Z,101116.03
2022-10-17T04:54:01.030Z,101120.63
2022-10-17T04:56:29.697Z,101118.34
2022-10-17T04:58:59.659Z,101116.81
2022-10-17T05:01:28.069Z,101114.34
2022-10-17T05:03:58.096Z,101121.88
2022-10-17T05:06:28.125Z,101123.56
2022-10-17T05:09:33.404Z,101126.72
2022-10-17T05:12:05.455Z,101125.03
2022-10-17T05:14:37.355Z,101128.78
2022-10-17T05:17:05.449Z,101134.53
2022-10-17T05:19:33.607Z,101131.75
2022-10-17T05:22:01.802Z,101132.88
2022-10-17T05:24:30.430Z,101133.25
2022-10-17T05:26:58.309Z,101140.59
2022-10-17T05:29:26.426Z,101129.28
2022-10-17T05:32:04.646Z,101126.63
2022-10-17T05:34:32.521Z,101125.81
2022-10-17T05:37:00.371Z,101130.63
2022-10-17T05:39:28.970Z,101134.25
2022-10-17T05:41:58.263Z,101128.25
2022-10-17T05:44:26.275Z,101130.91
2022-10-17T05:46:57.381Z,101126.91
2022-10-17T05:49:39.777Z,101126.34
2022-10-17T05:52:13.457Z,101129.25
2022-10-17T05:55:08.495Z,101133.09
2022-10-17T05:57:36.561Z,101127.78
2022-10-17T06:00:08.414Z,101136.72
2022-10-17T06:02:42.089Z,101141.19
2022-10-17T06:05:15.166Z,101141.63
2022-10-17T06:07:43.260Z,101137.78
2022-10-17T06:10:15.000Z,101147.28
2022-10-17T06:12:43.128Z,101149.78
2022-10-17T06:15:11.797Z,101147.66
2022-10-17T06:17:42.006Z,101149.72
2022-10-17T06:20:10.728Z,101155.25
2022-10-17T06:22:39.901Z,101143.69
2022-10-17T06:25:14.804Z,101142.97
2022-10-17T06:27:42.894Z,101152.50
2022-10-17T06:30:12.137Z,101164.66
2022-10-17T06:32:39.974Z,101166.34
2022-10-17T06:35:10.302Z,101160.91
2022-10-17T06:37:38.496Z,101172.22
2022-10-17T06:40:12.502Z,101163.19
2022-10-17T06:42:41.397Z,101178.00
2022-10-17T06:45:24.050Z,101188.22
2022-10-17T06:48:17.398Z,101169.53
2022-10-17T06:50:53.289Z,101180.13
2022-10-17T06:53:28.530Z,101185.19
2022-10-17T06:56:28.569Z,101182.28
2022-10-17T06:59:10.075Z,101182.75
2022-10-17T07:01:41.868Z,101185.28
2022-10-17T07:04:13.044Z,101194.66
2022-10-17T07:06:40.931Z,101195.13
2022-10-17T07:09:18.815Z,101202.59
2022-10-17T07:11:48.186Z,101211.84
2022-10-17T07:14:19.108Z,101207.72
2022-10-17T07:16:47.916Z,101203.31
2022-10-17T07:19:24.758Z,101209.56
2022-10-17T07:21:52.637Z,101203.47
2022-10-17T07:24:20.863Z,101207.28
2022-10-17T07:27:10.347Z,101195.06
2022-10-17T07:29:38.970Z,101204.03
2022-10-17T07:32:10.704Z,101202.44
2022-10-17T07:34:38.809Z,101213.22
2022-10-17T07:37:10.544Z,101214.13
2022-10-17T07:39:40.546Z,101222.16
2022-10-17T07:42:09.741Z,101228.34
2022-10-17T07:44:37.900Z,101226.84
2022-10-17T07:47:06.072Z,101221.72
2022-10-17T07:49:35.992Z,101231.53
2022-10-17T07:52:04.087Z,101228.22
2022-10-17T07:54:31.885Z,101231.88
2022-10-17T07:56:59.700Z,101221.41
2022-10-17T07:59:29.002Z,101213.47
2022-10-17T08:01:57.253Z,101217.09
2022-10-17T08:04:27.662Z,101215.16
2022-10-17T08:07:00.625Z,101221.03
2022-10-17T08:09:41.351Z,101215.44
2022-10-17T08:12:09.406Z,101215.22
2022-10-17T08:14:39.161Z,101207.50
2022-10-17T08:17:07.081Z,101211.53
2022-10-17T08:19:35.013Z,101203.09
2022-10-17T08:22:02.940Z,101210.50
2022-10-17T08:24:30.874Z,101219.69
2022-10-17T08:27:00.500Z,101212.91
2022-10-17T08:29:29.666Z,101207.25
2022-10-17T08:32:02.459Z,101204.66
2022-10-17T08:34:31.681Z,101199.13
2022-10-17T08:36:59.492Z,101205.22
2022-10-17T08:39:27.456Z,101208.81
2022-10-17T08:42:13.432Z,101214.25
2022-10-17T08:44:54.275Z,101205.31
2022-10-17T08:47:29.093Z,101205.56
2022-10-17T08:50:32.420Z,101214.94
2022-10-17T08:53:22.292Z,101207.09
2022-10-17T08:55:51.911Z,101210.44
2022-10-17T08:58:22.296Z,101206.31
2022-10-17T09:01:01.975Z,101200.41
2022-10-17T09:03:43.708Z,101200.47
2022-10-17T09:06:21.509Z,101199.88
2022-10-17T09:09:02.871Z,101206.13
2022-10-17T09:11:49.711Z,101202.66
2022-10-17T09:14:32.895Z,101209.78
2022-10-17T09:17:15.685Z,101196.63
2022-10-17T09:20:00.626Z,101200.50
2022-10-17T09:22:33.381Z,101198.06
2022-10-17T09:25:07.567Z,101198.09
2022-10-17T09:27:39.595Z,101194.81
2022-10-17T09:30:46.961Z,101203.88
2022-10-17T09:33:28.456Z,101210.09
2022-10-17T09:36:12.048Z,101213.28
2022-10-17T09:38:42.975Z,101217.53
2022-10-17T09:41:44.194Z,101220.19
2022-10-17T09:44:19.493Z,101224.88
2022-10-17T09:46:58.119Z,101238.25
2022-10-17T09:49:32.729Z,101244.63
2022-10-17T09:52:07.824Z,101240.69
2022-10-17T09:54:43.344Z,101236.72
2022-10-17T09:57:12.809Z,101233.09
2022-10-17T09:59:45.808Z,101231.44
2022-10-17T10:02:22.589Z,101223.97
2022-10-17T10:05:05.884Z,101225.13
2022-10-17T10:07:37.737Z,101218.53
2022-10-17T10:10:09.051Z,101230.41
2022-10-17T10:12:39.861Z,101226.22
2022-10-17T10:15:33.789Z,101228.44
2022-10-17T10:18:04.532Z,101243.00
2022-10-17T10:20:35.842Z,101240.69
2022-10-17T10:23:09.230Z,101242.34
2022-10-17T10:25:41.221Z,101240.66
2022-10-17T10:28:12.012Z,101244.69
2022-10-17T10:30:40.092Z,101241.38
2022-10-17T10:33:12.720Z,101237.00
2022-10-17T10:35:40.786Z,101236.28
2022-10-17T10:38:14.661Z,101242.47
2022-10-17T10:40:48.818Z,101241.78
2022-10-17T10:43:27.438Z,101236.38
2022-10-17T10:45:55.478Z,101239.88
2022-10-17T10:48:24.787Z,101240.72
2022-10-17T10:50:57.115Z,101238.69
2022-10-17T10:53:35.338Z,101232.44
2022-10-17T10:56:11.943Z,101225.00
2022-10-17T10:58:49.639Z,101220.06
2022-10-17T11:01:25.008Z,101223.19
2022-10-17T11:04:02.809Z,101230.38
2022-10-17T11:06:37.197Z,101240.53
2022-10-17T11:09:20.810Z,101236.00
2022-10-17T11:11:54.915Z,101238.16
2022-10-17T11:14:34.033Z,101239.13
2022-10-17T11:17:09.111Z,101239.25
2022-10-17T11:19:44.179Z,101243.19
2022-10-17T11:22:19.687Z,101245.09
2022-10-17T11:24:56.921Z,101238.78
2022-10-17T11:27:25.982Z,101240.97
2022-10-17T11:29:53.847Z,101239.38
2022-10-17T11:32:28.599Z,101244.22
2022-10-17T11:35:05.252Z,101241.03
2022-10-17T11:37:37.447Z,101248.00
2022-10-17T11:40:19.189Z,101238.25
2022-10-17T11:42:55.879Z,101254.72
2022-10-17T11:45:29.129Z,101239.91
2022-10-17T11:48:02.825Z,101230.66
2022-10-17T11:53:25.683Z,101240.00
2022-10-17T11:55:59.423Z,101244.06
2022-10-17T11:58:40.818Z,101237.34
2022-10-17T12:01:18.397Z,101234.69
2022-10-17T12:03:58.861Z,101241.19
2022-10-17T12:06:40.723Z,101248.31
2022-10-17T12:09:13.525Z,101237.63
2022-10-17T12:11:53.817Z,101239.75
2022-10-17T12:14:42.042Z,101236.75
2022-10-17T12:17:28.830Z,101238.00
2022-10-17T12:20:36.853Z,101241.22
2022-10-17T12:23:24.741Z,101222.00
2022-10-17T12:25:58.187Z,101232.63
2022-10-17T12:28:34.155Z,101230.88
2022-10-17T12:31:05.707Z,101227.16
2022-10-17T12:33:38.725Z,101233.63
2022-10-17T12:36:49.766Z,101232.78
2022-10-17T12:39:51.654Z,101237.16
2022-10-17T12:42:51.600Z,101237.72
2022-10-17T12:45:52.317Z,101225.72
2022-10-17T12:49:01.965Z,101225.09
2022-10-17T12:51:38.115Z,101221.38
2022-10-17T12:54:13.446Z,101217.47
2022-10-17T12:56:43.812Z,101232.06
2022-10-17T12:59:17.845Z,101234.56
2022-10-17T13:01:49.378Z,101231.28
2022-10-17T13:04:18.777Z,101241.06
2022-10-17T13:06:48.534Z,101240.34
2022-10-17T13:09:27.012Z,101241.91
2022-10-17T13:11:57.354Z,101247.31
2022-10-17T13:14:26.969Z,101247.25
2022-10-17T13:16:58.623Z,101243.56
2022-10-17T13:19:29.960Z,101234.78
2022-10-17T13:22:05.326Z,101247.94
2022-10-17T13:24:37.065Z,101254.38
2022-10-17T13:27:06.913Z,101247.59
2022-10-17T13:29:35.580Z,101237.66
2022-10-17T13:32:06.203Z,101239.22
2022-10-17T13:34:35.134Z,101243.63
2022-10-17T13:37:05.373Z,101235.97
2022-10-17T13:39:54.494Z,101243.91
2022-10-17T13:42:27.972Z,101250.13
2022-10-17T13:44:57.020Z,101248.47
2022-10-17T13:47:29.675Z,101249.69
2022-10-17T13:50:00.601Z,101250.75
2022-10-17T13:52:30.711Z,101255.53
2022-10-17T13:55:10.622Z,101248.66
2022-10-17T13:57:40.461Z,101255.34
2022-10-17T14:00:17.830Z,101258.47
2022-10-17T14:02:48.238Z,101251.38
2022-10-17T14:05:19.319Z,101254.72
2022-10-17T14:10:45.222Z,101247.63
2022-10-17T14:13:23.231Z,101260.31
2022-10-17T14:15:52.133Z,101256.72
2022-10-17T14:18:24.854Z,101254.88
2022-10-17T14:23:43.359Z,101265.22
2022-10-17T14:26:15.514Z,101262.47
2022-10-17T14:28:46.434Z,101254.34
2022-10-17T14:31:27.837Z,101261.41
2022-10-17T14:34:00.926Z,101269.34
2022-10-17T14:36:38.412Z,101271.81
2022-10-17T14:39:14.156Z,101269.72
2022-10-17T14:41:45.418Z,101269.91
2022-10-17T14:44:23.156Z,101262.75
2022-10-17T14:46:56.639Z,101264.81
2022-10-17T14:49:32.643Z,101260.09
2022-10-17T14:52:28.592Z,101264.22
2022-10-17T14:54:57.757Z,101267.19
2022-10-17T14:57:42.694Z,101269.44
2022-10-17T15:00:17.331Z,101273.19
2022-10-17T15:02:46.680Z,101274.09
2022-10-17T15:05:16.633Z,101279.22
2022-10-17T15:07:44.709Z,101291.78
2022-10-17T15:10:29.858Z,101294.63
2022-10-17T15:13:16.402Z,101299.13
2022-10-17T15:15:51.329Z,101309.72
2022-10-17T15:18:21.580Z,101307.50
2022-10-17T15:20:59.523Z,101313.81
2022-10-17T15:23:33.069Z,101308.88
2022-10-17T15:26:02.372Z,101306.94
2022-10-17T15:28:30.260Z,101316.72
2022-10-17T15:30:58.222Z,101318.38
2022-10-17T15:33:26.090Z,101316.50
2022-10-17T15:35:55.514Z,101319.81
2022-10-17T15:38:23.395Z,101311.75
2022-10-17T15:40:51.926Z,101320.63
2022-10-17T15:43:20.129Z,101316.84
2022-10-17T15:45:48.253Z,101315.56
2022-10-17T15:48:21.218Z,101317.94
2022-10-17T15:50:49.094Z,101316.53
2022-10-17T15:53:18.327Z,101315.16
2022-10-17T15:55:50.795Z,101310.25
2022-10-17T15:58:19.932Z,101317.69
2022-10-17T16:00:48.788Z,101311.03
2022-10-17T16:03:18.812Z,101318.31
2022-10-17T16:05:46.825Z,101318.19
2022-10-17T16:08:14.675Z,101321.66
2022-10-17T16:10:43.978Z,101323.53
2022-10-17T16:13:18.457Z,101324.75
2022-10-17T16:15:49.915Z,101320.63
2022-10-17T16:18:17.924Z,101334.25
2022-10-17T16:20:49.057Z,101325.75
2022-10-17T16:23:17.062Z,101331.50
2022-10-17T16:25:46.304Z,101334.56
2022-10-17T16:28:14.204Z,101329.75
2022-10-17T16:30:46.011Z,101343.47
2022-10-17T16:33:14.042Z,101337.63
2022-10-17T16:35:42.116Z,101343.38
2022-10-17T16:38:10.043Z,101348.06
2022-10-17T16:40:40.146Z,101348.06
2022-10-17T16:43:13.119Z,101345.53
2022-10-17T16:45:41.690Z,101340.34
2022-10-17T16:48:10.366Z,101349.41
2022-10-17T16:50:40.553Z,101361.91
2022-10-17T16:53:08.464Z,101360.22
2022-10-17T16:55:36.738Z,101363.75
2022-10-17T16:58:04.674Z,101368.06
2022-10-17T17:00:33.883Z,101371.56
2022-10-17T17:03:01.851Z,101372.41
2022-10-17T17:05:29.651Z,101378.41
2022-10-17T17:07:59.291Z,101380.88
2022-10-17T17:10:27.222Z,101377.84
2022-10-17T17:12:55.598Z,101383.84
2022-10-17T17:15:23.454Z,101383.63
2022-10-17T17:17:55.495Z,101388.81
2022-10-17T17:20:24.039Z,101389.56
2022-10-17T17:22:52.298Z,101393.88
2022-10-17T17:25:23.413Z,101403.53
2022-10-17T17:27:51.462Z,101402.31
2022-10-17T17:30:19.503Z,101396.78
2022-10-17T17:32:47.775Z,101401.91
2022-10-17T17:35:17.241Z,101405.19
2022-10-17T17:37:45.215Z,101408.53
2022-10-17T17:40:13.406Z,101408.28
2022-10-17T17:42:41.328Z,101407.91
2022-10-17T17:45:10.276Z,101405.69
2022-10-17T17:47:40.521Z,101414.88
2022-10-17T17:50:09.745Z,101409.69
2022-10-17T17:52:41.828Z,101408.84
2022-10-17T17:55:10.569Z,101412.66
2022-10-17T17:57:38.400Z,101423.34
2022-10-17T18:00:07.701Z,101418.88
2022-10-17T18:02:36.396Z,101420.00
2022-10-17T18:05:06.278Z,101419.16
2022-10-17T18:07:36.972Z,101423.53
2022-10-17T18:12:43.916Z,101427.88
2022-10-17T18:15:12.162Z,101428.88
2022-10-17T18:17:40.137Z,101427.50
2022-10-17T18:20:08.863Z,101431.31
2022-10-17T18:22:36.850Z,101431.31
2022-10-17T18:25:06.395Z,101436.66
2022-10-17T18:27:35.713Z,101432.97
2022-10-17T18:30:03.493Z,101442.69
2022-10-17T18:32:32.700Z,101441.84
2022-10-17T18:35:00.780Z,101446.53
2022-10-17T18:37:28.879Z,101454.69
2022-10-17T18:39:59.184Z,101446.81
2022-10-17T18:42:27.234Z,101454.28
2022-10-17T18:44:56.712Z,101449.25
2022-10-17T18:47:24.562Z,101447.72
2022-10-17T18:49:52.458Z,101454.88
2022-10-17T18:52:20.354Z,101453.19
2022-10-17T18:54:48.237Z,101454.19
2022-10-17T18:57:16.089Z,101461.53
2022-10-17T18:59:43.930Z,101459.84
2022-10-17T19:02:13.925Z,101450.16
2022-10-17T19:04:41.817Z,101462.81
2022-10-17T19:07:09.663Z,101460.31
2022-10-17T19:09:37.804Z,101464.13
2022-10-17T19:12:05.730Z,101457.09
2022-10-17T19:14:33.645Z,101459.44
2022-10-17T19:17:01.807Z,101470.59
2022-10-17T19:19:31.125Z,101467.06
2022-10-17T19:22:00.166Z,101461.06
2022-10-17T19:24:29.178Z,101464.72
2022-10-17T19:27:02.435Z,101459.53
2022-10-17T19:29:32.941Z,101460.50
2022-10-17T19:32:02.457Z,101455.16
2022-10-17T19:34:31.652Z,101454.31
2022-10-17T19:36:59.731Z,101446.47
2022-10-17T19:39:29.725Z,101446.75
2022-10-17T19:41:57.671Z,101450.88
2022-10-17T19:44:25.522Z,101446.81
2022-10-17T19:46:53.647Z,101454.47
2022-10-17T19:49:21.614Z,101455.72
2022-10-17T19:51:51.236Z,101451.84
2022-10-17T19:54:20.728Z,101448.63
2022-10-17T19:56:48.713Z,101452.44
2022-10-17T19:59:18.119Z,101456.22
2022-10-17T20:01:48.576Z,101453.88
2022-10-17T20:04:16.559Z,101452.34
2022-10-17T20:06:44.510Z,101454.31
2022-10-17T20:09:16.832Z,101459.66
2022-10-17T20:11:46.117Z,101450.78
2022-10-17T20:14:14.046Z,101455.44
2022-10-17T20:16:41.813Z,101451.09
2022-10-17T20:19:12.248Z,101453.06
2022-10-17T20:21:40.426Z,101451.38
2022-10-17T20:24:12.825Z,101439.88
2022-10-17T20:26:42.692Z,101448.72
2022-10-17T20:29:14.229Z,101450.69
2022-10-17T20:31:43.903Z,101448.16
2022-10-17T20:34:14.632Z,101445.81
2022-10-17T20:36:42.836Z,101447.63
2022-10-17T20:39:12.386Z,101464.50
2022-10-17T20:41:42.267Z,101467.03
2022-10-17T20:44:10.689Z,101462.66
2022-10-17T20:46:44.851Z,101466.31
2022-10-17T20:49:21.303Z,101462.66
2022-10-17T20:51:49.124Z,101467.28
2022-10-17T20:54:17.021Z,101470.09
2022-10-17T20:56:46.186Z,101473.63
2022-10-17T20:59:17.062Z,101468.44
2022-10-17T21:01:48.008Z,101478.28
2022-10-17T21:07:04.335Z,101475.84
2022-10-17T21:09:32.481Z,101483.72
2022-10-17T21:12:05.249Z,101491.03
2022-10-17T21:14:33.886Z,101485.53
2022-10-17T21:17:04.979Z,101483.72
2022-10-17T21:19:33.673Z,101486.38
2022-10-17T21:22:01.771Z,101488.09
2022-10-17T21:24:32.399Z,101487.97
2022-10-17T21:27:00.329Z,101485.28
2022-10-17T21:29:29.671Z,101486.28
2022-10-17T21:31:57.572Z,101483.63
2022-10-17T21:34:25.579Z,101479.94
2022-10-17T21:36:53.666Z,101482.63
2022-10-17T21:39:22.808Z,101479.94
2022-10-17T21:41:50.800Z,101474.75
2022-10-17T21:44:20.173Z,101473.91
2022-10-17T21:46:49.719Z,101477.53
2022-10-17T21:49:22.520Z,101463.34
2022-10-17T21:51:51.206Z,101474.03
2022-10-17T21:54:20.465Z,101462.50
2022-10-17T21:56:48.320Z,101466.16
2022-10-17T21:59:16.413Z,101465.34
2022-10-17T22:01:46.789Z,101457.34
2022-10-17T22:04:18.021Z,101469.81
2022-10-17T22:06:47.718Z,101465.75
2022-10-17T22:09:18.115Z,101468.41
2022-10-17T22:11:51.309Z,101472.09
2022-10-17T22:14:23.793Z,101459.59
2022-10-17T22:16:51.787Z,101459.72
2022-10-17T22:19:23.129Z,101463.38
2022-10-17T22:21:51.325Z,101460.03
2022-10-17T22:26:53.876Z,101466.19
2022-10-17T22:29:22.390Z,101473.22
2022-10-17T22:31:50.477Z,101467.06
2022-10-17T22:34:20.902Z,101464.38
2022-10-17T22:36:49.227Z,101464.38
2022-10-17T22:39:17.322Z,101469.03
2022-10-17T22:41:45.391Z,101462.16
2022-10-17T22:44:13.198Z,101466.63
2022-10-17T22:46:41.125Z,101470.28
2022-10-17T22:49:09.014Z,101459.75
2022-10-17T22:51:38.386Z,101457.94
2022-10-17T22:54:06.263Z,101448.25
2022-10-17T22:56:34.257Z,101445.03
2022-10-17T22:59:02.025Z,101440.84
2022-10-17T23:01:29.987Z,101443.78
2022-10-17T23:03:57.858Z,101448.28
2022-10-17T23:06:25.755Z,101441.28
2022-10-17T23:08:57.999Z,101444.22
2022-10-17T23:11:25.917Z,101441.72
2022-10-17T23:13:56.768Z,101434.84
2022-10-17T23:16:24.685Z,101437.09
2022-10-17T23:18:52.425Z,101436.84
2022-10-17T23:21:20.443Z,101443.16
2022-10-17T23:23:48.196Z,101444.97
2022-10-17T23:26:20.269Z,101438.94
2022-10-17T23:28:48.341Z,101443.56
2022-10-17T23:31:18.027Z,101443.72
2022-10-17T23:33:47.253Z,101446.84
2022-10-17T23:36:17.434Z,101449.75
2022-10-17T23:38:46.635Z,101450.88
2022-10-17T23:41:14.999Z,101454.41
2022-10-17T23:43:44.883Z,101451.19
2022-10-17T23:46:14.829Z,101442.34
2022-10-17T23:48:42.765Z,101443.31
2022-10-17T23:51:11.864Z,101441.66
2022-10-17T23:53:40.960Z,101442.75
2022-10-17T23:56:11.283Z,101447.09
2022-10-17T23:58:40.295Z,101445.56
